Time;durP1;ratioP1;P1;durP2;ratioP2;P2;SDS_P1;SDS_P2;PMS_P1;PMS_P2;Temp;Humidity;BMP_temperature;BMP_pressure;BME280_temperature;BME280_humidity;BME280_pressure;Samples;Min_cycle;Max_cycle;Signal;HPM_P1;HPM_P2
2021/07/11 00:02:24;;;;;;;3.55;1.55;;;;;;;;;;5032246;28;20036;-42
2021/07/11 00:04:49;;;;;;;1.67;0.90;;;;;;;;;;5036067;28;20036;-42
2021/07/11 00:07:15;;;;;;;2.85;2.20;;;;;;;;;;5036544;28;20046;-45
2021/07/11 00:09:40;;;;;;;4.50;1.65;;;;;;;;;;5032324;28;20021;-40
2021/07/11 00:12:06;;;;;;;2.63;1.65;;;;;;;;;;5035585;28;20029;-40
2021/07/11 00:14:32;;;;;;;2.80;1.80;;;;;;;;;;5038424;28;20048;-40
2021/07/11 00:16:57;;;;;;;5.78;2.28;;;;;;;;;;5035325;28;20023;-42
2021/07/11 00:19:22;;;;;;;2.22;1.83;;;;;;;;;;5037393;28;20040;-41
2021/07/11 00:21:48;;;;;;;3.35;2.47;;;;;;;;;;5033729;28;20017;-40
2021/07/11 00:24:13;;;;;;;9.75;3.60;;;;;;;;;;5032651;28;20096;-40
2021/07/11 00:26:38;;;;;;;8.23;3.72;;;;;;;;;;5032191;28;20243;-42
2021/07/11 00:29:04;;;;;;;14.18;3.65;;;;;;;;;;5033329;28;20029;-40
2021/07/11 00:31:29;;;;;;;7.57;3.20;;;;;;;;;;5040300;28;20520;-43
2021/07/11 00:33:54;;;;;;;6.32;3.13;;;;;;;;;;5036110;28;20053;-40
2021/07/11 00:36:20;;;;;;;5.95;3.22;;;;;;;;;;5027659;28;20022;-41
2021/07/11 00:38:45;;;;;;;4.78;2.15;;;;;;;;;;5031603;28;20022;-40
2021/07/11 00:41:10;;;;;;;3.53;2.65;;;;;;;;;;5029999;28;20033;-42
2021/07/11 00:43:35;;;;;;;4.72;3.05;;;;;;;;;;5029506;28;20041;-41
2021/07/11 00:46:01;;;;;;;5.25;3.20;;;;;;;;;;5038123;28;20097;-39
2021/07/11 00:48:26;;;;;;;3.53;2.42;;;;;;;;;;5036202;28;20035;-42
2021/07/11 00:50:52;;;;;;;4.57;3.13;;;;;;;;;;5035407;28;20025;-40
2021/07/11 00:53:17;;;;;;;6.60;2.58;;;;;;;;;;5028619;28;20035;-42
2021/07/11 00:55:43;;;;;;;3.42;2.45;;;;;;;;;;5033642;28;20024;-39
2021/07/11 00:58:08;;;;;;;5.78;2.72;;;;;;;;;;5029879;28;20021;-42
2021/07/11 01:00:34;;;;;;;3.47;2.75;;;;;;;;;;5037789;28;20028;-41
2021/07/11 01:03:26;;;;;;;4.53;3.13;;;;;;;;;;5034523;28;20520;-40
2021/07/11 01:05:52;;;;;;;9.88;2.90;;;;;;;;;;5031987;28;20044;-39
2021/07/11 01:08:20;;;;;;;6.60;2.28;;;;;;;;;;5028755;28;20053;-41
2021/07/11 01:10:55;;;;;;;6.60;2.75;;;;;;;;;;5038236;28;20025;-40
2021/07/11 01:13:22;;;;;;;4.55;2.58;;;;;;;;;;5035443;28;20104;-40
2021/07/11 01:15:50;;;;;;;5.60;1.88;;;;;;;;;;5041124;28;20016;-43
2021/07/11 01:18:18;;;;;;;3.42;2.22;;;;;;;;;;5037316;28;20169;-40
2021/07/11 01:20:51;;;;;;;2.42;1.80;;;;;;;;;;5036229;28;20089;-41
2021/07/11 01:23:35;;;;;;;4.80;1.70;;;;;;;;;;5038216;28;20024;-41
2021/07/11 01:26:01;;;;;;;7.30;3.08;;;;;;;;;;5033567;28;20115;-39
2021/07/11 01:28:27;;;;;;;4.60;1.48;;;;;;;;;;5034042;28;20052;-40
2021/07/11 01:30:53;;;;;;;11.20;2.67;;;;;;;;;;5034896;28;20044;-39
2021/07/11 01:33:20;;;;;;;3.13;1.55;;;;;;;;;;5034211;28;20385;-40
2021/07/11 01:35:46;;;;;;;3.92;3.17;;;;;;;;;;5036379;28;20052;-40
2021/07/11 01:38:11;;;;;;;3.88;3.50;;;;;;;;;;5037618;28;20096;-39
2021/07/11 01:40:38;;;;;;;9.65;4.65;;;;;;;;;;5037155;28;20469;-40
2021/07/11 01:43:04;;;;;;;6.25;4.93;;;;;;;;;;5032358;28;20024;-41
2021/07/11 01:45:29;;;;;;;3.67;2.97;;;;;;;;;;5032797;28;20021;-41
2021/07/11 01:47:55;;;;;;;7.00;2.55;;;;;;;;;;5035944;28;20036;-41
2021/07/11 01:50:21;;;;;;;3.28;2.70;;;;;;;;;;5035940;28;20108;-41
2021/07/11 01:52:46;;;;;;;2.83;2.28;;;;;;;;;;5039273;28;20029;-40
2021/07/11 01:55:12;;;;;;;2.55;1.80;;;;;;;;;;5036335;28;20022;-40
2021/07/11 01:57:37;;;;;;;3.72;2.95;;;;;;;;;;5035631;28;20419;-41
2021/07/11 02:00:05;;;;;;;3.72;3.35;;;;;;;;;;5035798;28;20023;-40
2021/07/11 02:02:30;;;;;;;6.78;2.40;;;;;;;;;;5036851;28;20108;-40
2021/07/11 02:04:55;;;;;;;8.55;2.83;;;;;;;;;;5038143;28;20571;-40
2021/07/11 02:07:21;;;;;;;4.78;2.65;;;;;;;;;;5036969;28;20068;-41
2021/07/11 02:09:46;;;;;;;4.93;2.97;;;;;;;;;;5033056;28;20017;-39
2021/07/11 02:12:12;;;;;;;2.33;2.05;;;;;;;;;;5037041;28;20025;-40
2021/07/11 02:14:38;;;;;;;3.08;2.03;;;;;;;;;;5036188;28;20366;-39
2021/07/11 02:17:10;;;;;;;5.25;2.00;;;;;;;;;;5035593;28;20064;-39
2021/07/11 02:19:37;;;;;;;4.43;2.13;;;;;;;;;;5028199;28;20025;-40
2021/07/11 02:22:03;;;;;;;6.90;2.25;;;;;;;;;;5039005;28;20676;-42
2021/07/11 02:24:29;;;;;;;2.78;1.75;;;;;;;;;;5039365;28;20469;-40
2021/07/11 02:26:54;;;;;;;3.38;2.08;;;;;;;;;;5037477;28;20033;-41
2021/07/11 02:29:20;;;;;;;1.48;1.17;;;;;;;;;;5035187;28;20025;-39
2021/07/11 02:31:46;;;;;;;4.78;2.35;;;;;;;;;;5035235;28;20028;-40
2021/07/11 02:34:13;;;;;;;2.65;1.70;;;;;;;;;;5031380;28;20033;-41
2021/07/11 02:36:47;;;;;;;3.22;2.20;;;;;;;;;;5034051;28;20026;-41
2021/07/11 02:39:14;;;;;;;3.83;2.40;;;;;;;;;;5033943;28;20021;-40
2021/07/11 02:41:42;;;;;;;2.55;1.88;;;;;;;;;;5034601;28;20413;-41
2021/07/11 02:44:12;;;;;;;2.25;1.77;;;;;;;;;;5035982;28;20025;-40
2021/07/11 02:46:42;;;;;;;2.53;1.92;;;;;;;;;;5032523;28;20030;-39
2021/07/11 02:49:09;;;;;;;2.70;1.67;;;;;;;;;;5036845;28;20104;-39
2021/07/11 02:51:37;;;;;;;2.25;1.52;;;;;;;;;;5032173;28;20040;-41
2021/07/11 02:54:02;;;;;;;2.38;1.23;;;;;;;;;;5030010;28;20088;-41
2021/07/11 02:56:33;;;;;;;2.35;1.60;;;;;;;;;;5037584;28;20114;-39
2021/07/11 02:58:59;;;;;;;3.28;1.70;;;;;;;;;;5036568;28;20033;-39
2021/07/11 03:01:25;;;;;;;2.97;1.40;;;;;;;;;;5037913;28;20222;-39
2021/07/11 03:03:51;;;;;;;6.07;1.60;;;;;;;;;;5035397;28;20100;-40
2021/07/11 03:06:17;;;;;;;2.63;1.98;;;;;;;;;;5033985;28;20380;-41
2021/07/11 03:08:42;;;;;;;3.33;1.60;;;;;;;;;;5034862;28;20057;-41
2021/07/11 03:11:08;;;;;;;2.08;1.25;;;;;;;;;;5034629;28;20045;-45
2021/07/11 03:13:34;;;;;;;3.53;2.08;;;;;;;;;;5036082;28;20126;-40
2021/07/11 03:15:59;;;;;;;5.53;1.52;;;;;;;;;;5038223;28;20028;-42
2021/07/11 03:18:26;;;;;;;1.92;1.42;;;;;;;;;;5032840;28;20021;-40
2021/07/11 03:20:52;;;;;;;2.88;1.85;;;;;;;;;;5028782;28;20017;-44
2021/07/11 03:23:18;;;;;;;11.07;2.67;;;;;;;;;;5024863;28;20025;-41
2021/07/11 03:25:43;;;;;;;2.17;1.67;;;;;;;;;;5033889;28;20044;-41
2021/07/11 03:28:08;;;;;;;2.22;1.58;;;;;;;;;;5036709;28;20445;-43
2021/07/11 03:30:38;;;;;;;4.05;1.50;;;;;;;;;;5033140;28;20021;-39
2021/07/11 03:33:05;;;;;;;7.90;1.30;;;;;;;;;;5031036;28;20064;-41
2021/07/11 03:35:40;;;;;;;28.13;3.08;;;;;;;;;;5033557;28;20032;-40
2021/07/11 03:38:06;;;;;;;2.72;1.73;;;;;;;;;;5039159;28;20025;-43
2021/07/11 03:40:37;;;;;;;2.35;1.65;;;;;;;;;;5034066;28;20646;-39
2021/07/11 03:43:07;;;;;;;2.63;2.13;;;;;;;;;;5029370;28;20024;-41
2021/07/11 03:45:33;;;;;;;7.47;4.50;;;;;;;;;;5033751;28;20025;-41
2021/07/11 03:48:05;;;;;;;2.30;1.55;;;;;;;;;;5034019;28;20088;-40
2021/07/11 03:50:30;;;;;;;2.60;2.05;;;;;;;;;;5034100;28;20033;-40
2021/07/11 03:53:04;;;;;;;3.65;1.52;;;;;;;;;;5032023;28;20037;-40
2021/07/11 03:55:30;;;;;;;2.28;1.63;;;;;;;;;;5030500;28;20096;-41
2021/07/11 03:57:56;;;;;;;3.88;2.22;;;;;;;;;;5033698;28;20017;-40
2021/07/11 04:00:21;;;;;;;4.03;2.58;;;;;;;;;;5033713;28;20388;-41
2021/07/11 04:02:49;;;;;;;5.20;2.03;;;;;;;;;;5034687;28;20020;-39
2021/07/11 04:05:16;;;;;;;2.40;1.73;;;;;;;;;;5033376;28;20093;-40
2021/07/11 04:07:41;;;;;;;2.63;2.10;;;;;;;;;;5036784;28;20068;-43
2021/07/11 04:10:07;;;;;;;4.43;2.17;;;;;;;;;;5035044;28;20056;-40
2021/07/11 04:12:33;;;;;;;3.33;2.20;;;;;;;;;;5028423;28;20033;-41
2021/07/11 04:14:59;;;;;;;2.15;1.95;;;;;;;;;;5026643;28;20036;-39
2021/07/11 04:17:25;;;;;;;12.38;2.70;;;;;;;;;;5031324;28;20021;-41
2021/07/11 04:19:55;;;;;;;5.13;2.15;;;;;;;;;;5032839;28;20099;-39
2021/07/11 04:22:21;;;;;;;1.33;0.90;;;;;;;;;;5032447;28;20014;-41
2021/07/11 04:24:46;;;;;;;4.80;3.10;;;;;;;;;;5036054;28;20043;-41
2021/07/11 04:27:12;;;;;;;12.32;2.38;;;;;;;;;;5028633;28;20025;-39
2021/07/11 04:29:38;;;;;;;3.22;1.67;;;;;;;;;;5034679;28;20048;-40
2021/07/11 04:32:04;;;;;;;3.65;2.13;;;;;;;;;;5033754;28;20025;-39
2021/07/11 04:34:36;;;;;;;3.35;2.40;;;;;;;;;;5030974;28;20022;-40
2021/07/11 04:37:06;;;;;;;2.63;1.60;;;;;;;;;;5031016;28;20030;-39
2021/07/11 04:39:31;;;;;;;2.35;1.45;;;;;;;;;;5030973;28;20108;-40
2021/07/11 04:41:57;;;;;;;3.30;1.73;;;;;;;;;;5026701;28;20021;-39
2021/07/11 04:44:23;;;;;;;2.83;2.08;;;;;;;;;;5036212;28;20068;-41
2021/07/11 04:46:48;;;;;;;3.13;1.63;;;;;;;;;;5037704;28;20021;-40
2021/07/11 04:49:14;;;;;;;3.55;1.63;;;;;;;;;;5034678;28;20725;-39
2021/07/11 04:51:39;;;;;;;4.07;2.50;;;;;;;;;;5036799;28;20025;-41
2021/07/11 04:54:05;;;;;;;4.15;2.45;;;;;;;;;;5034732;28;20018;-39
2021/07/11 04:56:31;;;;;;;6.32;3.03;;;;;;;;;;5039311;28;20451;-39
2021/07/11 04:58:56;;;;;;;5.50;3.65;;;;;;;;;;5038127;28;20022;-40
2021/07/11 05:01:21;;;;;;;3.63;2.17;;;;;;;;;;5038155;28;20642;-40
2021/07/11 05:03:47;;;;;;;4.57;2.58;;;;;;;;;;5038988;28;20116;-40
2021/07/11 05:06:12;;;;;;;2.97;1.42;;;;;;;;;;5035998;28;20029;-40
2021/07/11 05:08:37;;;;;;;2.63;1.35;;;;;;;;;;5038564;28;20061;-40
2021/07/11 05:11:03;;;;;;;1.42;1.30;;;;;;;;;;5037416;28;20708;-39
2021/07/11 05:13:28;;;;;;;4.28;1.92;;;;;;;;;;5034501;28;20447;-40
2021/07/11 05:15:53;;;;;;;3.28;1.92;;;;;;;;;;5037265;28;20560;-41
2021/07/11 05:18:19;;;;;;;3.17;1.65;;;;;;;;;;5036434;28;20045;-40
2021/07/11 05:20:44;;;;;;;2.70;2.20;;;;;;;;;;5037383;28;20116;-40
2021/07/11 05:23:09;;;;;;;8.30;2.50;;;;;;;;;;5037207;28;20473;-39
2021/07/11 05:25:35;;;;;;;4.30;2.20;;;;;;;;;;5040139;28;20457;-39
2021/07/11 05:28:00;;;;;;;4.47;2.50;;;;;;;;;;5037814;28;20029;-40
2021/07/11 05:30:26;;;;;;;9.73;3.00;;;;;;;;;;5038878;28;20557;-40
2021/07/11 05:32:51;;;;;;;2.92;2.30;;;;;;;;;;5041933;28;20021;-40
2021/07/11 05:35:16;;;;;;;4.43;2.15;;;;;;;;;;5038141;28;20070;-39
2021/07/11 05:37:42;;;;;;;3.83;2.72;;;;;;;;;;5031855;28;20788;-40
2021/07/11 05:40:08;;;;;;;13.48;3.95;;;;;;;;;;5033321;28;20392;-39
2021/07/11 05:42:33;;;;;;;4.32;3.70;;;;;;;;;;5035910;28;20111;-39
2021/07/11 05:44:58;;;;;;;9.32;4.55;;;;;;;;;;5038635;28;20461;-39
2021/07/11 05:47:24;;;;;;;10.68;3.35;;;;;;;;;;5036740;28;20562;-41
2021/07/11 05:49:49;;;;;;;7.18;3.15;;;;;;;;;;5032380;28;20029;-41
2021/07/11 05:52:14;;;;;;;5.95;2.92;;;;;;;;;;5037265;28;20071;-40
2021/07/11 05:54:40;;;;;;;4.03;2.70;;;;;;;;;;5037468;28;20252;-40
2021/07/11 05:57:05;;;;;;;11.82;10.70;;;;;;;;;;5039820;28;20506;-39
2021/07/11 05:59:30;;;;;;;6.22;3.92;;;;;;;;;;5040176;28;20053;-40
2021/07/11 06:01:56;;;;;;;6.20;2.85;;;;;;;;;;5036459;28;20018;-40
2021/07/11 06:04:21;;;;;;;4.22;2.00;;;;;;;;;;5037750;28;20503;-40
2021/07/11 06:06:46;;;;;;;2.95;2.38;;;;;;;;;;5036729;28;20022;-39
2021/07/11 06:09:12;;;;;;;3.33;1.92;;;;;;;;;;5034333;28;20111;-41
2021/07/11 06:11:39;;;;;;;2.97;2.05;;;;;;;;;;5035197;28;20436;-42
2021/07/11 06:14:04;;;;;;;7.05;2.78;;;;;;;;;;5041959;28;20023;-39
2021/07/11 06:16:30;;;;;;;5.05;1.60;;;;;;;;;;5038897;28;20017;-42
2021/07/11 06:18:55;;;;;;;2.95;1.88;;;;;;;;;;5036417;28;20025;-43
2021/07/11 06:21:20;;;;;;;2.50;1.35;;;;;;;;;;5037114;28;20045;-41
2021/07/11 06:23:46;;;;;;;2.08;1.58;;;;;;;;;;5034393;28;20064;-43
2021/07/11 06:26:12;;;;;;;1.70;1.35;;;;;;;;;;5039004;28;20025;-41
2021/07/11 06:28:37;;;;;;;5.90;1.50;;;;;;;;;;5030417;28;20029;-40
2021/07/11 06:31:02;;;;;;;1.98;1.42;;;;;;;;;;5035067;28;20063;-41
2021/07/11 06:33:28;;;;;;;2.28;1.63;;;;;;;;;;5034911;28;20384;-41
2021/07/11 06:35:53;;;;;;;4.40;2.50;;;;;;;;;;5038498;28;20013;-44
2021/07/11 06:38:19;;;;;;;2.83;1.33;;;;;;;;;;5035915;28;20033;-39
2021/07/11 06:40:44;;;;;;;3.78;2.35;;;;;;;;;;5036604;28;20023;-42
2021/07/11 06:43:09;;;;;;;3.15;2.65;;;;;;;;;;5034357;28;20090;-42
2021/07/11 06:45:35;;;;;;;5.10;1.70;;;;;;;;;;5035311;28;20546;-40
2021/07/11 06:48:00;;;;;;;6.47;2.33;;;;;;;;;;5034971;28;20489;-39
2021/07/11 06:50:25;;;;;;;2.92;2.25;;;;;;;;;;5033318;28;20551;-40
2021/07/11 06:52:51;;;;;;;2.25;1.67;;;;;;;;;;5035561;28;20064;-41
2021/07/11 06:55:16;;;;;;;4.32;2.38;;;;;;;;;;5044483;28;20056;-40
2021/07/11 06:57:42;;;;;;;10.68;2.25;;;;;;;;;;5034693;28;20022;-42
2021/07/11 07:00:08;;;;;;;2.92;2.03;;;;;;;;;;5031450;28;20025;-39
2021/07/11 07:02:33;;;;;;;3.85;2.63;;;;;;;;;;5036073;28;20021;-40
2021/07/11 07:04:58;;;;;;;4.40;2.25;;;;;;;;;;5040059;28;20028;-43
2021/07/11 07:07:24;;;;;;;7.63;2.80;;;;;;;;;;5037406;28;20084;-41
2021/07/11 07:09:49;;;;;;;15.20;5.50;;;;;;;;;;5036196;28;20028;-40
2021/07/11 07:12:14;;;;;;;9.65;4.07;;;;;;;;;;5032299;28;20444;-40
2021/07/11 07:14:40;;;;;;;13.50;4.55;;;;;;;;;;5029164;28;20555;-41
2021/07/11 07:17:05;;;;;;;8.55;4.38;;;;;;;;;;5031603;28;20052;-40
2021/07/11 07:19:30;;;;;;;10.43;8.32;;;;;;;;;;5038229;28;20017;-40
2021/07/11 07:21:55;;;;;;;15.43;9.02;;;;;;;;;;5034344;28;20973;-41
2021/07/11 07:24:21;;;;;;;16.30;10.00;;;;;;;;;;5032191;28;20464;-39
2021/07/11 07:26:46;;;;;;;8.48;6.53;;;;;;;;;;5035011;28;20024;-43
2021/07/11 07:29:11;;;;;;;9.00;6.05;;;;;;;;;;5036945;28;20028;-41
2021/07/11 07:31:37;;;;;;;13.85;6.35;;;;;;;;;;5033515;28;20028;-42
2021/07/11 07:34:05;;;;;;;11.82;5.90;;;;;;;;;;5031674;28;20029;-40
2021/07/11 07:36:31;;;;;;;8.10;5.88;;;;;;;;;;5035824;28;20022;-40
2021/07/11 07:38:57;;;;;;;10.93;7.38;;;;;;;;;;5035306;28;20040;-40
2021/07/11 07:41:23;;;;;;;15.60;6.15;;;;;;;;;;5036531;28;20021;-43
2021/07/11 07:43:48;;;;;;;10.07;6.13;;;;;;;;;;5031857;28;20484;-39
2021/07/11 07:46:13;;;;;;;7.75;5.90;;;;;;;;;;5031092;28;20022;-40
2021/07/11 07:48:39;;;;;;;10.52;5.57;;;;;;;;;;5031473;28;20064;-41
2021/07/11 07:51:04;;;;;;;7.55;5.30;;;;;;;;;;5034686;28;20032;-40
2021/07/11 07:53:29;;;;;;;14.77;5.18;;;;;;;;;;5031320;28;20026;-40
2021/07/11 07:55:54;;;;;;;8.30;4.93;;;;;;;;;;5034960;28;20104;-40
2021/07/11 07:58:20;;;;;;;10.30;4.72;;;;;;;;;;5032015;28;20673;-41
2021/07/11 08:00:45;;;;;;;5.22;3.85;;;;;;;;;;5035199;28;20036;-39
2021/07/11 08:03:10;;;;;;;5.85;4.28;;;;;;;;;;5036616;28;20013;-42
2021/07/11 08:05:36;;;;;;;5.25;2.90;;;;;;;;;;5035234;28;20032;-39
2021/07/11 08:08:01;;;;;;;2.80;1.95;;;;;;;;;;5035407;28;20079;-44
2021/07/11 08:10:27;;;;;;;13.50;2.50;;;;;;;;;;5036730;28;20571;-45
2021/07/11 08:12:52;;;;;;;3.28;1.80;;;;;;;;;;5037096;28;20096;-45
2021/07/11 08:15:19;;;;;;;4.43;2.63;;;;;;;;;;5034650;28;20033;-43
2021/07/11 08:17:45;;;;;;;8.60;2.50;;;;;;;;;;5034550;28;20152;-45
2021/07/11 08:20:11;;;;;;;2.60;0.82;;;;;;;;;;5033823;28;20504;-43
2021/07/11 08:22:37;;;;;;;4.63;1.55;;;;;;;;;;5030343;28;20105;-43
2021/07/11 08:25:03;;;;;;;6.97;1.02;;;;;;;;;;5031687;28;20040;-43
2021/07/11 08:27:28;;;;;;;1.40;0.88;;;;;;;;;;5031257;28;20032;-43
2021/07/11 08:29:53;;;;;;;1.52;0.80;;;;;;;;;;5030423;28;20434;-48
2021/07/11 08:32:19;;;;;;;2.83;1.10;;;;;;;;;;5033067;28;20108;-44
2021/07/11 08:34:45;;;;;;;2.17;1.23;;;;;;;;;;5027174;28;20034;-46
2021/07/11 08:37:10;;;;;;;2.08;0.90;;;;;;;;;;5032649;28;20499;-44
2021/07/11 08:39:35;;;;;;;1.08;0.65;;;;;;;;;;5034240;28;20040;-45
2021/07/11 08:42:01;;;;;;;3.78;1.73;;;;;;;;;;5036482;28;20532;-47
2021/07/11 08:44:26;;;;;;;1.27;1.17;;;;;;;;;;5031626;28;20517;-45
2021/07/11 08:46:52;;;;;;;2.33;1.38;;;;;;;;;;5033826;28;20029;-43
2021/07/11 08:49:18;;;;;;;2.95;1.15;;;;;;;;;;5032130;28;20397;-44
2021/07/11 08:51:44;;;;;;;3.00;1.08;;;;;;;;;;5034512;28;20025;-44
2021/07/11 08:54:11;;;;;;;3.10;0.95;;;;;;;;;;5032461;28;20032;-44
2021/07/11 08:56:36;;;;;;;3.17;1.85;;;;;;;;;;5033741;28;20628;-43
2021/07/11 08:59:02;;;;;;;1.38;0.98;;;;;;;;;;5036200;28;20017;-45
2021/07/11 09:01:28;;;;;;;1.65;1.25;;;;;;;;;;5033490;28;20079;-43
2021/07/11 09:04:00;;;;;;;2.15;1.33;;;;;;;;;;5034975;28;20082;-43
2021/07/11 09:06:26;;;;;;;2.53;1.67;;;;;;;;;;5032068;28;20108;-44
2021/07/11 09:08:56;;;;;;;3.65;1.33;;;;;;;;;;5026948;28;20153;-43
2021/07/11 09:11:21;;;;;;;9.68;1.55;;;;;;;;;;5029196;28;20025;-44
2021/07/11 09:13:49;;;;;;;3.33;1.00;;;;;;;;;;5030585;28;20033;-46
2021/07/11 09:16:14;;;;;;;1.42;0.90;;;;;;;;;;5033262;28;20021;-44
2021/07/11 09:18:40;;;;;;;4.55;2.35;;;;;;;;;;5032481;28;20112;-43
2021/07/11 09:21:06;;;;;;;4.00;1.80;;;;;;;;;;5033436;28;20497;-44
2021/07/11 09:23:32;;;;;;;2.17;1.30;;;;;;;;;;5030186;28;20495;-45
2021/07/11 09:26:06;;;;;;;1.83;0.70;;;;;;;;;;5034202;28;20009;-44
2021/07/11 09:28:32;;;;;;;2.45;1.45;;;;;;;;;;5032224;28;20026;-47
2021/07/11 09:31:14;;;;;;;1.92;1.38;;;;;;;;;;5038342;28;20014;-45
2021/07/11 09:33:44;;;;;;;1.63;1.08;;;;;;;;;;5033798;28;20105;-43
2021/07/11 09:36:11;;;;;;;2.10;1.00;;;;;;;;;;5032647;28;20684;-44
2021/07/11 09:38:37;;;;;;;1.77;1.10;;;;;;;;;;5036148;28;20025;-45
2021/07/11 09:41:19;;;;;;;2.30;1.05;;;;;;;;;;5031347;28;20033;-43
2021/07/11 09:43:45;;;;;;;3.40;0.60;;;;;;;;;;5035879;28;20017;-43
2021/07/11 09:46:14;;;;;;;3.03;0.77;;;;;;;;;;5036138;28;20021;-49
2021/07/11 09:48:39;;;;;;;1.50;0.85;;;;;;;;;;5040057;28;20378;-44
2021/07/11 09:51:13;;;;;;;1.15;0.70;;;;;;;;;;5038136;28;20556;-43
2021/07/11 09:53:38;;;;;;;2.78;1.08;;;;;;;;;;5036172;28;20029;-48
2021/07/11 09:56:04;;;;;;;2.38;1.08;;;;;;;;;;5043838;28;20127;-44
2021/07/11 09:58:32;;;;;;;2.10;1.00;;;;;;;;;;5031848;28;20021;-44
2021/07/11 10:00:57;;;;;;;2.13;1.05;;;;;;;;;;5048565;28;20017;-47
2021/07/11 10:03:23;;;;;;;1.30;0.73;;;;;;;;;;5034939;28;20024;-47
2021/07/11 10:05:49;;;;;;;2.45;0.70;;;;;;;;;;5037325;28;20111;-47
2021/07/11 10:08:14;;;;;;;1.20;0.85;;;;;;;;;;5037886;28;20143;-45
2021/07/11 10:10:40;;;;;;;2.95;1.40;;;;;;;;;;5039481;28;20029;-52
2021/07/11 10:13:07;;;;;;;1.08;0.55;;;;;;;;;;5036982;28;20025;-49
2021/07/11 10:15:33;;;;;;;0.60;0.50;;;;;;;;;;5040205;28;20029;-49
2021/07/11 10:18:08;;;;;;;1.08;0.63;;;;;;;;;;5037898;28;20021;-47
2021/07/11 10:20:41;;;;;;;1.08;0.55;;;;;;;;;;5035979;28;20017;-45
2021/07/11 10:23:07;;;;;;;6.30;1.00;;;;;;;;;;5037020;28;20032;-49
2021/07/11 10:25:34;;;;;;;1.60;0.98;;;;;;;;;;5034781;28;20036;-49
2021/07/11 10:28:05;;;;;;;4.10;1.20;;;;;;;;;;5037983;28;20067;-45
2021/07/11 10:30:30;;;;;;;1.30;0.95;;;;;;;;;;5032961;28;20592;-46
2021/07/11 10:33:05;;;;;;;0.88;0.47;;;;;;;;;;5029672;28;20088;-47
2021/07/11 10:35:30;;;;;;;3.47;0.70;;;;;;;;;;5035546;28;20520;-49
2021/07/11 10:37:55;;;;;;;1.33;0.73;;;;;;;;;;5037585;28;20028;-50
2021/07/11 10:40:22;;;;;;;0.88;0.40;;;;;;;;;;5036822;28;20079;-48
2021/07/11 10:42:48;;;;;;;1.90;1.05;;;;;;;;;;5033580;28;20029;-47
2021/07/11 10:45:14;;;;;;;2.47;1.05;;;;;;;;;;5033075;28;20036;-47
2021/07/11 10:47:40;;;;;;;2.47;0.73;;;;;;;;;;5032104;28;20078;-47
2021/07/11 10:50:25;;;;;;;1.02;0.68;;;;;;;;;;5036559;28;20022;-45
2021/07/11 10:52:51;;;;;;;1.60;0.68;;;;;;;;;;5035292;28;20021;-47
2021/07/11 10:55:16;;;;;;;2.75;1.13;;;;;;;;;;5036926;28;20024;-47
2021/07/11 10:57:42;;;;;;;4.97;1.08;;;;;;;;;;5032114;28;20029;-46
2021/07/11 11:00:08;;;;;;;1.25;0.65;;;;;;;;;;5035584;28;20044;-51
2021/07/11 11:02:34;;;;;;;1.17;0.82;;;;;;;;;;5037081;28;20098;-47
2021/07/11 11:05:16;;;;;;;12.10;1.30;;;;;;;;;;5031283;28;20483;-45
2021/07/11 11:07:43;;;;;;;1.45;0.77;;;;;;;;;;5028877;28;20059;-45
2021/07/11 11:10:22;;;;;;;4.90;3.20;;;;;;;;;;5034501;28;20017;-46
2021/07/11 11:13:06;;;;;;;1.92;1.10;;;;;;;;;;5036356;28;20033;-47
2021/07/11 11:15:41;;;;;;;0.95;0.30;;;;;;;;;;5040337;28;20036;-49
2021/07/11 11:18:18;;;;;;;1.40;0.50;;;;;;;;;;5036926;28;20061;-45
2021/07/11 11:20:47;;;;;;;7.43;0.98;;;;;;;;;;5037583;28;20024;-49
2021/07/11 11:23:13;;;;;;;3.33;0.98;;;;;;;;;;5036821;28;20024;-47
2021/07/11 11:25:42;;;;;;;5.50;0.50;;;;;;;;;;5049088;28;20468;-44
2021/07/11 11:28:07;;;;;;;0.93;0.57;;;;;;;;;;5034933;28;20018;-44
2021/07/11 11:30:33;;;;;;;1.48;0.52;;;;;;;;;;5032465;28;20501;-46
2021/07/11 11:33:00;;;;;;;1.42;0.70;;;;;;;;;;5037797;28;20496;-45
2021/07/11 11:35:30;;;;;;;3.15;1.17;;;;;;;;;;5036445;28;20728;-44
2021/07/11 11:37:57;;;;;;;0.75;0.57;;;;;;;;;;5032721;28;20112;-44
2021/07/11 11:40:23;;;;;;;0.85;0.47;;;;;;;;;;5033006;28;20030;-43
2021/07/11 11:42:50;;;;;;;2.53;1.15;;;;;;;;;;5035009;28;20043;-44
2021/07/11 11:45:16;;;;;;;1.45;0.60;;;;;;;;;;5035612;28;20052;-44
2021/07/11 11:47:41;;;;;;;1.83;0.95;;;;;;;;;;5035604;28;20615;-45
2021/07/11 11:50:17;;;;;;;0.60;0.40;;;;;;;;;;5037325;28;20064;-43
2021/07/11 11:52:43;;;;;;;1.75;0.82;;;;;;;;;;5031106;28;20041;-43
2021/07/11 11:55:09;;;;;;;1.15;0.60;;;;;;;;;;5032595;28;20104;-44
2021/07/11 11:57:36;;;;;;;1.05;0.50;;;;;;;;;;5032552;28;20108;-45
2021/07/11 12:00:03;;;;;;;17.15;1.05;;;;;;;;;;5035795;28;20527;-43
2021/07/11 12:02:28;;;;;;;3.22;1.00;;;;;;;;;;5034988;28;20060;-44
2021/07/11 12:04:53;;;;;;;0.57;0.47;;;;;;;;;;5036174;28;20049;-44
2021/07/11 12:07:19;;;;;;;0.98;0.32;;;;;;;;;;5035418;28;20088;-43
2021/07/11 12:09:45;;;;;;;6.60;0.63;;;;;;;;;;5030524;28;20461;-45
2021/07/11 12:12:11;;;;;;;0.68;0.40;;;;;;;;;;5036394;28;20033;-44
2021/07/11 12:14:38;;;;;;;1.15;0.43;;;;;;;;;;5032349;28;20070;-44
2021/07/11 12:17:04;;;;;;;2.40;0.90;;;;;;;;;;5032304;28;20033;-43
2021/07/11 12:19:40;;;;;;;1.20;0.65;;;;;;;;;;5037287;28;20017;-43
2021/07/11 12:22:05;;;;;;;2.17;0.77;;;;;;;;;;5034973;28;20550;-43
2021/07/11 12:24:31;;;;;;;0.85;0.55;;;;;;;;;;5047683;28;20029;-45
2021/07/11 12:27:00;;;;;;;2.05;0.50;;;;;;;;;;5031416;28;20075;-42
2021/07/11 12:29:30;;;;;;;1.30;0.85;;;;;;;;;;5029873;28;20025;-46
2021/07/11 12:31:56;;;;;;;1.05;0.55;;;;;;;;;;5033594;28;20029;-46
2021/07/11 12:34:21;;;;;;;0.93;0.30;;;;;;;;;;5032896;28;20041;-45
2021/07/11 12:36:52;;;;;;;2.20;1.13;;;;;;;;;;5033205;28;20092;-43
2021/07/11 12:39:18;;;;;;;0.95;0.60;;;;;;;;;;5036776;28;20032;-44
2021/07/11 12:41:43;;;;;;;1.58;0.60;;;;;;;;;;5024410;28;20045;-43
2021/07/11 12:44:09;;;;;;;0.60;0.43;;;;;;;;;;5033796;28;20017;-45
2021/07/11 12:46:35;;;;;;;1.83;0.90;;;;;;;;;;5031778;28;20028;-42
2021/07/11 12:49:00;;;;;;;1.33;0.90;;;;;;;;;;5037706;28;20017;-43
2021/07/11 12:51:27;;;;;;;1.10;0.50;;;;;;;;;;5037457;28;20566;-43
2021/07/11 12:53:56;;;;;;;2.47;1.35;;;;;;;;;;5035012;28;20282;-43
2021/07/11 12:56:26;;;;;;;0.63;0.40;;;;;;;;;;5035690;28;20078;-42
2021/07/11 12:58:52;;;;;;;1.87;1.10;;;;;;;;;;5033509;28;20834;-42
2021/07/11 13:01:18;;;;;;;2.47;0.90;;;;;;;;;;5032776;28;20021;-42
2021/07/11 13:03:43;;;;;;;2.55;0.95;;;;;;;;;;5031358;28;20112;-43
2021/07/11 13:06:15;;;;;;;1.85;0.77;;;;;;;;;;5038957;28;20104;-43
2021/07/11 13:08:42;;;;;;;0.47;0.30;;;;;;;;;;5035885;28;20056;-48
2021/07/11 13:11:07;;;;;;;1.42;0.82;;;;;;;;;;5039908;28;20535;-42
2021/07/11 13:13:32;;;;;;;0.35;0.20;;;;;;;;;;5035134;28;20114;-44
2021/07/11 13:15:58;;;;;;;0.75;0.50;;;;;;;;;;5039257;28;20485;-46
2021/07/11 13:18:23;;;;;;;1.60;1.13;;;;;;;;;;5034434;28;20074;-44
2021/07/11 13:20:48;;;;;;;2.63;1.23;;;;;;;;;;5042817;28;20021;-42
2021/07/11 13:23:15;;;;;;;0.65;0.38;;;;;;;;;;5038838;28;20507;-44
2021/07/11 13:25:42;;;;;;;1.42;0.55;;;;;;;;;;5036425;28;20025;-44
2021/07/11 13:28:08;;;;;;;1.15;0.52;;;;;;;;;;5035652;28;20365;-47
2021/07/11 13:30:34;;;;;;;2.63;0.90;;;;;;;;;;5032942;28;20026;-44
2021/07/11 13:32:59;;;;;;;1.05;0.80;;;;;;;;;;5027175;28;20041;-43
2021/07/11 13:35:25;;;;;;;5.90;1.60;;;;;;;;;;5035702;28;20020;-42
2021/07/11 13:37:51;;;;;;;0.70;0.43;;;;;;;;;;5034238;28;20045;-43
2021/07/11 13:40:17;;;;;;;1.05;0.40;;;;;;;;;;5032899;28;20028;-41
2021/07/11 13:42:43;;;;;;;0.63;0.40;;;;;;;;;;5037287;28;20021;-42
2021/07/11 13:45:10;;;;;;;0.75;0.30;;;;;;;;;;5040103;28;20377;-43
2021/07/11 13:47:35;;;;;;;9.07;1.00;;;;;;;;;;5033416;28;20042;-44
2021/07/11 13:50:02;;;;;;;1.80;0.80;;;;;;;;;;5038026;28;20027;-42
2021/07/11 13:52:28;;;;;;;2.90;0.60;;;;;;;;;;5037209;28;20021;-44
2021/07/11 13:54:53;;;;;;;1.50;0.82;;;;;;;;;;5036145;28;20500;-43
2021/07/11 13:57:18;;;;;;;1.00;0.35;;;;;;;;;;5039183;28;20025;-43
2021/07/11 13:59:44;;;;;;;1.10;0.77;;;;;;;;;;5036856;28;20013;-41
2021/07/11 14:02:09;;;;;;;2.30;1.23;;;;;;;;;;5035891;28;20534;-41
2021/07/11 14:04:34;;;;;;;1.40;0.93;;;;;;;;;;5035926;28;20508;-41
2021/07/11 14:06:59;;;;;;;3.10;0.45;;;;;;;;;;5037927;28;20029;-42
2021/07/11 14:09:25;;;;;;;2.90;0.82;;;;;;;;;;5037069;28;20024;-42
2021/07/11 14:11:50;;;;;;;2.53;1.50;;;;;;;;;;5038946;28;20690;-42
2021/07/11 14:14:15;;;;;;;2.13;0.90;;;;;;;;;;5037147;28;20661;-46
2021/07/11 14:16:41;;;;;;;0.95;0.50;;;;;;;;;;5034376;28;20017;-45
2021/07/11 14:19:06;;;;;;;1.90;0.80;;;;;;;;;;5036586;28;20024;-41
2021/07/11 14:21:31;;;;;;;2.80;1.20;;;;;;;;;;5032442;28;20037;-41
2021/07/11 14:23:57;;;;;;;1.00;0.60;;;;;;;;;;5037945;28;20013;-41
2021/07/11 14:26:22;;;;;;;1.15;0.85;;;;;;;;;;5039326;28;20028;-40
2021/07/11 14:28:48;;;;;;;0.82;0.47;;;;;;;;;;5035045;28;20020;-39
2021/07/11 14:31:13;;;;;;;0.43;0.30;;;;;;;;;;5036964;28;20013;-42
2021/07/11 14:33:38;;;;;;;1.38;0.70;;;;;;;;;;5039832;28;20480;-42
2021/07/11 14:36:04;;;;;;;1.65;0.95;;;;;;;;;;5033776;28;20021;-41
2021/07/11 14:38:29;;;;;;;1.70;0.88;;;;;;;;;;5032530;28;20449;-48
2021/07/11 14:40:55;;;;;;;1.30;0.80;;;;;;;;;;5033227;28;20021;-44